Time;durP1;ratioP1;P1;durP2;ratioP2;P2;SDS_P1;SDS_P2;PMS_P1;PMS_P2;Temp;Humidity;BMP_temperature;BMP_pressure;BME280_temperature;BME280_humidity;BME280_pressure;Samples;Min_cycle;Max_cycle;Signal;HPM_P1;HPM_P2
2022/02/27 00:00:13;;;;;;;9.75;2.42;;;5.30;98.90;;;;;;5001347;28;20060;-66
2022/02/27 00:02:40;;;;;;;7.80;2.15;;;5.30;98.70;;;;;;4971338;28;20046;-67
2022/02/27 00:05:08;;;;;;;10.95;2.67;;;5.30;98.70;;;;;;4991769;28;20046;-67
2022/02/27 00:07:36;;;;;;;18.73;2.50;;;5.40;98.80;;;;;;4985409;28;20085;-67
2022/02/27 00:10:04;;;;;;;8.32;2.33;;;5.20;98.80;;;;;;5001384;28;20038;-66
2022/02/27 00:12:30;;;;;;;12.00;3.08;;;5.30;98.80;;;;;;4992791;28;20089;-66
2022/02/27 00:14:57;;;;;;;14.48;2.33;;;5.20;98.80;;;;;;4998254;28;20081;-67
2022/02/27 00:17:24;;;;;;;9.75;2.20;;;5.20;98.80;;;;;;4997926;28;20077;-65
2022/02/27 00:19:51;;;;;;;18.23;2.95;;;5.20;99.20;;;;;;5004367;28;20053;-67
2022/02/27 00:22:18;;;;;;;14.60;3.50;;;5.20;99.00;;;;;;4996112;28;20539;-67
2022/02/27 00:24:45;;;;;;;12.32;2.78;;;5.20;99.00;;;;;;4985694;28;20164;-67
2022/02/27 00:27:14;;;;;;;13.60;3.75;;;5.20;99.00;;;;;;4996973;28;20093;-67
2022/02/27 00:29:41;;;;;;;9.90;2.92;;;5.20;99.00;;;;;;4970425;28;20058;-66
2022/02/27 00:32:08;;;;;;;12.07;2.70;;;5.20;99.20;;;;;;5001222;28;20060;-67
2022/02/27 00:34:35;;;;;;;13.57;3.92;;;5.20;99.30;;;;;;5006966;28;20052;-66
2022/02/27 00:37:02;;;;;;;14.88;2.90;;;5.20;99.40;;;;;;5000740;28;20086;-68
2022/02/27 00:39:29;;;;;;;14.23;3.38;;;5.20;99.20;;;;;;4989119;28;20054;-66
2022/02/27 00:41:56;;;;;;;10.98;3.30;;;5.20;99.10;;;;;;4994186;28;20042;-67
2022/02/27 00:44:22;;;;;;;12.75;4.13;;;5.20;99.10;;;;;;5008200;28;20058;-65
2022/02/27 00:46:49;;;;;;;13.35;3.47;;;5.20;99.10;;;;;;5003488;28;20144;-67
2022/02/27 00:49:16;;;;;;;14.27;3.38;;;5.20;99.10;;;;;;4990140;28;20470;-67
2022/02/27 00:51:43;;;;;;;9.98;2.95;;;5.20;99.10;;;;;;4991087;28;20077;-67
2022/02/27 00:54:10;;;;;;;15.52;3.20;;;5.20;99.20;;;;;;5002941;28;20084;-67
2022/02/27 00:56:37;;;;;;;7.53;2.58;;;5.20;99.10;;;;;;4996420;28;20383;-66
2022/02/27 00:59:03;;;;;;;13.27;3.05;;;5.20;99.10;;;;;;4993304;28;20054;-67
2022/02/27 01:01:32;;;;;;;22.83;3.10;;;5.20;99.10;;;;;;4992122;28;20046;-67
2022/02/27 01:03:59;;;;;;;7.90;3.17;;;5.20;99.20;;;;;;4999513;28;20053;-67
2022/02/27 01:06:26;;;;;;;15.40;3.80;;;5.20;99.10;;;;;;5003232;28;20104;-67
2022/02/27 01:08:54;;;;;;;15.15;3.30;;;5.10;99.00;;;;;;4998796;28;20062;-66
2022/02/27 01:11:21;;;;;;;12.82;3.25;;;5.10;99.10;;;;;;4992124;28;20073;-66
2022/02/27 01:13:48;;;;;;;8.30;2.75;;;5.10;99.10;;;;;;4997242;28;20046;-67
2022/02/27 01:16:14;;;;;;;13.95;3.65;;;5.10;99.10;;;;;;4998556;28;20069;-67
2022/02/27 01:18:41;;;;;;;14.15;2.83;;;5.10;99.00;;;;;;4997037;28;20050;-67
2022/02/27 01:21:08;;;;;;;13.82;3.28;;;5.10;99.00;;;;;;5007853;28;20096;-67
2022/02/27 01:23:35;;;;;;;8.85;2.70;;;5.10;99.10;;;;;;5000956;28;20156;-67
2022/02/27 01:26:02;;;;;;;12.57;3.00;;;5.00;99.00;;;;;;4988892;28;20053;-67
2022/02/27 01:28:28;;;;;;;11.45;2.85;;;5.00;99.00;;;;;;4994072;28;20085;-66
2022/02/27 01:30:59;;;;;;;11.75;3.22;;;5.00;99.10;;;;;;5008472;28;20100;-66
2022/02/27 01:33:25;;;;;;;10.55;2.72;;;5.00;98.90;;;;;;5002963;28;20054;-67
2022/02/27 01:35:52;;;;;;;10.45;3.17;;;5.00;98.90;;;;;;4989723;28;20110;-67
2022/02/27 01:38:19;;;;;;;11.23;3.33;;;5.00;98.80;;;;;;4975977;28;20097;-66
2022/02/27 01:40:46;;;;;;;7.18;2.60;;;4.90;98.90;;;;;;4987755;28;20046;-67
2022/02/27 01:43:13;;;;;;;9.85;2.25;;;5.00;98.90;;;;;;5002431;28;20108;-65
2022/02/27 01:45:40;;;;;;;13.38;3.30;;;5.00;98.80;;;;;;4993769;28;20695;-66
2022/02/27 01:48:07;;;;;;;9.40;3.10;;;5.00;98.80;;;;;;4993415;28;20141;-67
2022/02/27 01:50:34;;;;;;;10.25;2.55;;;4.90;98.70;;;;;;4978811;28;20081;-68
2022/02/27 01:53:01;;;;;;;10.65;2.83;;;4.90;98.70;;;;;;4992369;28;20053;-67
2022/02/27 01:55:28;;;;;;;10.73;2.92;;;4.90;98.70;;;;;;4998304;28;20046;-66
2022/02/27 01:57:54;;;;;;;13.13;2.88;;;4.90;98.70;;;;;;5004127;28;20135;-66
2022/02/27 02:00:21;;;;;;;8.23;2.97;;;4.80;98.60;;;;;;4999291;28;20142;-68
2022/02/27 02:02:48;;;;;;;9.15;2.53;;;4.80;98.60;;;;;;4990833;28;20042;-66
2022/02/27 02:05:15;;;;;;;12.73;3.00;;;4.80;98.50;;;;;;5001055;28;20045;-66
2022/02/27 02:07:43;;;;;;;9.52;2.83;;;4.80;98.50;;;;;;5010749;28;20053;-67
2022/02/27 02:10:10;;;;;;;9.85;2.35;;;4.80;98.40;;;;;;4981664;28;20054;-66
2022/02/27 02:12:37;;;;;;;8.38;2.50;;;4.80;98.40;;;;;;5011284;28;20583;-66
2022/02/27 02:15:04;;;;;;;16.20;3.05;;;4.80;98.40;;;;;;4998388;28;20046;-66
2022/02/27 02:17:30;;;;;;;14.68;2.60;;;4.80;98.20;;;;;;5011548;28;20085;-67
2022/02/27 02:19:57;;;;;;;10.32;2.10;;;4.70;98.20;;;;;;4988534;28;20485;-67
2022/02/27 02:22:24;;;;;;;12.32;2.83;;;4.80;98.30;;;;;;4992717;28;20073;-67
2022/02/27 02:24:51;;;;;;;8.02;2.67;;;4.70;98.20;;;;;;4996118;28;20059;-66
2022/02/27 02:27:18;;;;;;;13.70;2.90;;;4.70;98.10;;;;;;4990523;28;20073;-67
2022/02/27 02:29:44;;;;;;;14.20;2.70;;;4.70;98.30;;;;;;5005907;28;20077;-67
2022/02/27 02:32:12;;;;;;;15.10;2.90;;;4.70;98.10;;;;;;4996968;28;20489;-66
2022/02/27 02:34:39;;;;;;;10.35;2.40;;;4.60;98.00;;;;;;4648685;28;9999928;-67
2022/02/27 02:37:06;;;;;;;7.15;2.30;;;4.60;98.00;;;;;;4997390;28;20043;-66
2022/02/27 02:39:32;;;;;;;14.07;2.97;;;4.60;98.00;;;;;;4978554;28;20721;-66
2022/02/27 02:41:59;;;;;;;11.45;2.20;;;4.60;98.10;;;;;;5000869;28;20425;-66
2022/02/27 02:44:26;;;;;;;13.43;2.78;;;4.60;98.00;;;;;;5003017;28;20073;-66
2022/02/27 02:46:56;;;;;;;12.52;3.92;;;4.60;97.90;;;;;;4999912;28;20111;-66
2022/02/27 02:49:23;;;;;;;12.43;3.03;;;4.60;97.90;;;;;;5009144;28;20090;-66
2022/02/27 02:51:50;;;;;;;10.43;2.55;;;4.60;97.90;;;;;;5001685;28;20145;-66
2022/02/27 02:54:16;;;;;;;12.95;2.55;;;4.50;97.90;;;;;;4991669;28;20054;-66
2022/02/27 02:56:43;;;;;;;8.18;2.67;;;4.50;97.90;;;;;;4998034;28;20080;-66
2022/02/27 02:59:10;;;;;;;11.98;2.15;;;4.50;97.90;;;;;;5010581;28;20072;-66
2022/02/27 03:01:37;;;;;;;17.67;3.00;;;4.50;97.90;;;;;;5003989;28;20089;-67
2022/02/27 03:04:04;;;;;;;9.80;3.05;;;4.40;98.00;;;;;;4991103;28;20425;-66
2022/02/27 03:06:32;;;;;;;14.13;2.78;;;4.50;97.80;;;;;;4978207;28;20093;-66
2022/02/27 03:09:01;;;;;;;8.60;1.98;;;4.50;97.90;;;;;;5009505;28;20197;-66
2022/02/27 03:11:28;;;;;;;10.32;2.58;;;4.40;97.80;;;;;;5005368;28;20050;-66
2022/02/27 03:14:00;;;;;;;7.95;3.00;;;4.40;97.90;;;;;;5002117;28;20081;-66
2022/02/27 03:16:29;;;;;;;11.73;2.38;;;4.40;97.90;;;;;;5004999;28;20049;-68
2022/02/27 03:18:57;;;;;;;9.40;1.90;;;4.40;98.00;;;;;;4994556;28;20056;-66
2022/02/27 03:21:24;;;;;;;10.95;3.03;;;4.40;98.00;;;;;;4977755;28;20100;-66
2022/02/27 03:23:52;;;;;;;11.55;2.75;;;4.40;98.00;;;;;;5004020;28;20057;-67
2022/02/27 03:26:20;;;;;;;7.75;2.00;;;4.40;97.90;;;;;;5005230;28;20074;-66
2022/02/27 03:28:47;;;;;;;12.25;3.88;;;4.40;98.00;;;;;;4998491;28;20081;-67
2022/02/27 03:31:14;;;;;;;17.25;3.13;;;4.40;98.00;;;;;;4977882;28;20042;-67
2022/02/27 03:33:41;;;;;;;11.77;2.75;;;4.40;98.00;;;;;;4999883;28;20483;-67
2022/02/27 03:36:09;;;;;;;12.82;1.95;;;4.40;98.00;;;;;;5006093;28;20508;-66
2022/02/27 03:38:36;;;;;;;18.73;3.40;;;4.30;98.00;;;;;;5001349;28;20054;-66
2022/02/27 03:41:03;;;;;;;8.50;2.42;;;4.30;98.00;;;;;;4974337;28;20549;-66
2022/02/27 03:43:30;;;;;;;10.35;2.50;;;4.30;98.10;;;;;;5001325;28;20097;-68
2022/02/27 03:45:56;;;;;;;13.38;2.00;;;4.30;98.10;;;;;;4973558;28;20073;-66
2022/02/27 03:48:23;;;;;;;9.88;2.50;;;4.30;98.10;;;;;;4998005;28;20041;-67
2022/02/27 03:50:50;;;;;;;12.32;3.13;;;4.30;98.10;;;;;;4993606;28;20082;-67
2022/02/27 03:53:18;;;;;;;12.68;3.70;;;4.30;98.20;;;;;;5006678;28;20410;-67
2022/02/27 03:55:44;;;;;;;12.32;2.17;;;4.30;98.30;;;;;;4992021;28;20124;-68
2022/02/27 03:58:11;;;;;;;7.10;2.25;;;4.30;98.20;;;;;;4997172;28;20166;-65
2022/02/27 04:00:38;;;;;;;10.52;2.22;;;4.20;98.20;;;;;;5011191;28;20089;-66
2022/02/27 04:03:05;;;;;;;13.60;2.50;;;4.20;98.40;;;;;;5012277;28;20132;-66
2022/02/27 04:05:32;;;;;;;16.30;2.58;;;4.30;98.40;;;;;;5014936;28;20144;-66
2022/02/27 04:07:59;;;;;;;10.30;2.10;;;4.20;98.50;;;;;;5005755;28;20042;-66
2022/02/27 04:10:26;;;;;;;9.70;2.92;;;4.20;98.50;;;;;;4993288;28;20430;-66
2022/02/27 04:12:53;;;;;;;10.65;2.88;;;4.10;98.60;;;;;;5004465;28;20078;-66
2022/02/27 04:15:21;;;;;;;9.20;2.20;;;4.10;98.60;;;;;;4997918;28;20056;-66
2022/02/27 04:17:48;;;;;;;16.67;3.70;;;4.30;98.70;;;;;;4992749;28;20506;-67
2022/02/27 04:20:15;;;;;;;10.88;3.08;;;4.10;98.70;;;;;;5000634;28;20105;-66
2022/02/27 04:22:42;;;;;;;8.52;1.95;;;4.10;99.00;;;;;;4993262;28;20544;-66
2022/02/27 04:25:08;;;;;;;18.08;4.90;;;4.10;99.00;;;;;;4999144;28;20104;-66
2022/02/27 04:27:35;;;;;;;13.00;2.75;;;4.10;98.80;;;;;;5005944;28;20054;-65
2022/02/27 04:30:03;;;;;;;9.45;2.63;;;4.00;98.90;;;;;;4994649;28;20093;-65
2022/02/27 04:32:29;;;;;;;16.35;2.58;;;4.00;99.00;;;;;;4991538;28;20080;-67
2022/02/27 04:34:56;;;;;;;18.38;2.75;;;4.00;99.00;;;;;;5002054;28;20085;-66
2022/02/27 04:37:23;;;;;;;12.68;2.90;;;4.00;99.10;;;;;;4990403;28;20050;-66
2022/02/27 04:39:50;;;;;;;14.18;2.67;;;3.90;99.10;;;;;;5006671;28;20053;-67
2022/02/27 04:42:17;;;;;;;17.48;5.13;;;3.90;99.20;;;;;;5011527;28;20054;-66
2022/02/27 04:44:44;;;;;;;12.13;2.67;;;3.90;99.50;;;;;;4981402;28;20096;-66
2022/02/27 04:47:11;;;;;;;9.50;2.85;;;3.90;99.50;;;;;;5010400;28;20081;-66
2022/02/27 04:49:38;;;;;;;15.15;2.38;;;3.90;99.40;;;;;;5006251;28;20077;-67
2022/02/27 04:52:05;;;;;;;22.38;2.67;;;3.90;99.40;;;;;;4995906;28;20528;-66
2022/02/27 04:54:32;;;;;;;13.88;2.90;;;3.90;99.50;;;;;;4998446;28;20089;-66
2022/02/27 04:56:59;;;;;;;12.43;2.60;;;3.90;99.40;;;;;;4987725;28;20100;-66
2022/02/27 04:59:26;;;;;;;8.98;2.63;;;3.90;99.50;;;;;;4987625;28;20567;-66
2022/02/27 05:01:53;;;;;;;20.77;2.50;;;3.90;99.60;;;;;;4998027;28;20569;-67
2022/02/27 05:04:20;;;;;;;16.77;2.75;;;3.90;99.60;;;;;;4994230;28;20073;-67
2022/02/27 05:06:47;;;;;;;11.20;2.65;;;3.90;99.70;;;;;;4998771;28;20096;-67
2022/02/27 05:09:17;;;;;;;5.25;2.03;;;3.80;99.70;;;;;;5002319;28;20105;-66
2022/02/27 05:11:44;;;;;;;14.02;2.72;;;3.80;99.70;;;;;;4997603;28;20077;-66
2022/02/27 05:14:15;;;;;;;12.95;3.22;;;4.00;99.90;;;;;;5007090;28;20046;-66
2022/02/27 05:16:41;;;;;;;12.27;4.50;;;3.80;99.70;;;;;;5000074;28;20100;-66
2022/02/27 05:19:08;;;;;;;16.77;3.17;;;3.80;99.80;;;;;;5004444;28;20050;-66
2022/02/27 05:21:35;;;;;;;10.10;2.80;;;3.80;99.90;;;;;;4995182;28;20087;-66
2022/02/27 05:24:02;;;;;;;13.07;5.00;;;3.80;99.90;;;;;;5008708;28;20121;-66
2022/02/27 05:26:28;;;;;;;8.13;2.97;;;3.70;99.90;;;;;;5002078;28;20133;-66
2022/02/27 05:28:55;;;;;;;16.50;2.60;;;3.70;99.90;;;;;;4989104;28;20105;-67
2022/02/27 05:31:23;;;;;;;11.63;2.58;;;3.70;99.90;;;;;;4993379;28;20580;-66
2022/02/27 05:33:50;;;;;;;9.48;2.67;;;3.80;99.90;;;;;;5007926;28;20081;-67
2022/02/27 05:36:16;;;;;;;11.32;2.65;;;3.80;99.90;;;;;;5002194;28;20085;-67
2022/02/27 05:38:46;;;;;;;9.05;2.45;;;3.80;99.90;;;;;;4994867;28;20058;-67
2022/02/27 05:41:13;;;;;;;14.27;2.63;;;3.80;99.90;;;;;;5004013;28;20534;-67
2022/02/27 05:43:40;;;;;;;15.30;3.28;;;3.80;99.90;;;;;;4990155;28;20045;-67
2022/02/27 05:46:08;;;;;;;9.95;2.67;;;3.80;99.90;;;;;;5006915;28;20100;-67
2022/02/27 05:48:35;;;;;;;10.13;2.65;;;3.80;99.90;;;;;;4999477;28;20104;-67
2022/02/27 05:51:01;;;;;;;14.45;2.40;;;3.80;99.90;;;;;;4995828;28;20046;-67
2022/02/27 05:53:28;;;;;;;11.77;2.30;;;3.80;99.90;;;;;;5002885;28;20050;-66
2022/02/27 05:55:57;;;;;;;9.70;2.45;;;3.80;99.90;;;;;;5007504;28;20042;-69
2022/02/27 05:58:25;;;;;;;15.55;2.80;;;3.80;99.90;;;;;;5003197;28;20493;-65
2022/02/27 06:00:52;;;;;;;10.73;2.83;;;3.80;99.90;;;;;;4994481;28;20054;-67
2022/02/27 06:03:19;;;;;;;11.43;2.60;;;3.70;99.90;;;;;;5000682;28;20112;-66
2022/02/27 06:05:46;;;;;;;13.80;3.63;;;3.80;99.90;;;;;;5010297;28;20050;-66
2022/02/27 06:08:13;;;;;;;13.20;2.60;;;3.80;99.90;;;;;;5003487;28;20470;-66
2022/02/27 06:10:39;;;;;;;16.13;2.60;;;3.70;99.90;;;;;;5008278;28;20111;-66
2022/02/27 06:13:06;;;;;;;16.10;2.72;;;3.70;99.90;;;;;;4998556;28;20082;-66
2022/02/27 06:15:33;;;;;;;9.57;3.20;;;3.70;99.90;;;;;;5011659;28;20049;-66
2022/02/27 06:18:00;;;;;;;11.25;3.15;;;3.70;99.90;;;;;;5006369;28;20050;-66
2022/02/27 06:20:27;;;;;;;11.93;2.75;;;3.70;99.90;;;;;;4992012;28;20223;-66
2022/02/27 06:22:53;;;;;;;16.55;4.57;;;3.70;99.90;;;;;;4996186;28;20086;-66
2022/02/27 06:25:20;;;;;;;19.58;3.65;;;3.70;99.90;;;;;;5009186;28;20081;-65
2022/02/27 06:27:47;;;;;;;16.08;3.03;;;3.70;99.90;;;;;;4988801;28;20125;-67
2022/02/27 06:30:18;;;;;;;10.82;2.20;;;3.70;99.90;;;;;;4996247;28;20050;-65
2022/02/27 06:32:49;;;;;;;12.63;3.15;;;3.70;99.90;;;;;;4996210;28;20046;-66
2022/02/27 06:35:17;;;;;;;12.63;3.35;;;3.70;99.90;;;;;;5005229;28;20053;-66
2022/02/27 06:37:44;;;;;;;14.57;2.38;;;3.70;99.90;;;;;;5005284;28;20573;-66
2022/02/27 06:40:11;;;;;;;9.25;2.60;;;3.70;99.90;;;;;;4999116;28;20129;-66
2022/02/27 06:42:38;;;;;;;14.45;2.10;;;3.70;99.90;;;;;;4995962;28;20041;-66
2022/02/27 06:45:06;;;;;;;13.48;2.28;;;3.70;99.90;;;;;;5001057;28;20056;-66
2022/02/27 06:47:33;;;;;;;12.00;3.00;;;3.60;99.90;;;;;;5007490;28;20049;-66
2022/02/27 06:50:00;;;;;;;12.93;3.60;;;3.60;99.90;;;;;;5000882;28;20046;-66
2022/02/27 06:52:27;;;;;;;12.25;3.15;;;3.60;99.90;;;;;;4992105;28;20050;-66
2022/02/27 06:54:53;;;;;;;15.00;2.92;;;3.80;99.90;;;;;;4982516;28;20465;-68
2022/02/27 06:57:20;;;;;;;14.23;3.80;;;3.70;99.90;;;;;;5008830;28;20531;-66
2022/02/27 06:59:47;;;;;;;15.27;5.10;;;3.70;99.90;;;;;;5003210;28;20125;-66
2022/02/27 07:02:14;;;;;;;12.10;2.85;;;3.70;99.90;;;;;;4990586;28;20580;-67
2022/02/27 07:04:41;;;;;;;22.42;2.92;;;3.70;99.90;;;;;;4995622;28;20049;-66
2022/02/27 07:07:08;;;;;;;13.55;2.95;;;3.60;99.90;;;;;;5010313;28;20054;-66
2022/02/27 07:09:35;;;;;;;7.22;2.63;;;3.60;99.90;;;;;;5004753;28;20088;-66
2022/02/27 07:12:02;;;;;;;13.77;3.35;;;3.70;99.90;;;;;;5009499;28;20081;-66
2022/02/27 07:14:29;;;;;;;13.73;2.47;;;3.70;99.90;;;;;;5004867;28;20042;-67
2022/02/27 07:16:55;;;;;;;13.38;3.10;;;3.70;99.90;;;;;;5007300;28;20049;-67
2022/02/27 07:19:22;;;;;;;10.85;3.08;;;3.70;99.90;;;;;;5005077;28;20054;-65
2022/02/27 07:21:49;;;;;;;11.30;2.30;;;3.70;99.90;;;;;;4996217;28;20046;-67
2022/02/27 07:24:16;;;;;;;9.45;2.47;;;3.70;99.90;;;;;;4977633;28;20058;-66
2022/02/27 07:26:43;;;;;;;19.13;3.35;;;3.70;99.90;;;;;;5002063;28;20054;-66
2022/02/27 07:29:10;;;;;;;16.48;2.90;;;3.70;99.90;;;;;;5005076;28;20155;-66
2022/02/27 07:31:37;;;;;;;8.32;2.80;;;3.70;99.90;;;;;;4999984;28;20088;-66
2022/02/27 07:34:04;;;;;;;9.68;2.95;;;3.70;99.90;;;;;;4993306;28;20053;-66
2022/02/27 07:36:31;;;;;;;10.35;2.92;;;3.70;99.90;;;;;;4998610;28;20073;-66
2022/02/27 07:38:57;;;;;;;11.25;2.20;;;3.70;99.90;;;;;;5007881;28;20274;-67
2022/02/27 07:41:24;;;;;;;7.78;2.20;;;3.80;99.90;;;;;;5000863;28;20050;-66
2022/02/27 07:43:56;;;;;;;13.15;2.58;;;3.80;99.90;;;;;;4990529;28;20047;-67
2022/02/27 07:46:23;;;;;;;13.25;2.72;;;3.80;99.90;;;;;;4996788;28;20053;-66
2022/02/27 07:48:50;;;;;;;14.38;3.03;;;4.10;99.90;;;;;;5008551;28;20046;-67
2022/02/27 07:51:22;;;;;;;10.10;2.35;;;3.90;99.90;;;;;;4984320;28;20050;-66
2022/02/27 07:53:49;;;;;;;12.88;3.15;;;3.90;99.90;;;;;;5008176;28;20054;-66
2022/02/27 07:56:16;;;;;;;13.20;2.65;;;3.90;99.90;;;;;;5002182;28;20123;-67
2022/02/27 07:58:43;;;;;;;14.88;2.67;;;3.90;99.90;;;;;;5004928;28;20085;-66
2022/02/27 08:01:10;;;;;;;16.65;4.45;;;3.90;99.90;;;;;;4998044;28;20135;-67
2022/02/27 08:03:37;;;;;;;12.40;3.22;;;3.90;99.90;;;;;;4999248;28;20387;-67
2022/02/27 08:06:04;;;;;;;14.70;2.88;;;4.00;99.90;;;;;;4996577;28;20096;-67
2022/02/27 08:08:33;;;;;;;10.98;2.80;;;4.00;99.90;;;;;;4994113;28;20054;-67
2022/02/27 08:11:00;;;;;;;5.25;2.70;;;4.20;99.90;;;;;;4993817;28;20129;-67
2022/02/27 08:13:27;;;;;;;18.80;2.95;;;4.10;99.90;;;;;;5001968;28;20041;-67
2022/02/27 08:15:58;;;;;;;14.98;2.75;;;4.20;99.90;;;;;;4987477;28;20081;-67
2022/02/27 08:18:25;;;;;;;9.48;2.55;;;4.20;99.90;;;;;;4996786;28;20042;-67
2022/02/27 08:20:52;;;;;;;19.05;3.00;;;4.20;99.90;;;;;;5000359;28;20107;-66
2022/02/27 08:23:20;;;;;;;11.70;2.88;;;4.30;99.90;;;;;;4997957;28;20104;-66
2022/02/27 08:25:46;;;;;;;14.95;3.15;;;4.10;99.90;;;;;;5004443;28;20054;-66
2022/02/27 08:28:14;;;;;;;13.32;2.90;;;4.30;99.90;;;;;;4999895;28;20234;-67
2022/02/27 08:30:41;;;;;;;12.60;2.70;;;4.40;99.90;;;;;;4990512;28;20057;-67
2022/02/27 08:33:08;;;;;;;13.45;3.33;;;4.50;99.90;;;;;;4997145;28;20104;-66
2022/02/27 08:35:36;;;;;;;15.85;3.90;;;4.50;99.90;;;;;;5002057;28;20045;-66
2022/02/27 08:38:03;;;;;;;7.07;2.70;;;4.60;99.90;;;;;;4982831;28;20429;-65
2022/02/27 08:40:30;;;;;;;20.23;2.45;;;4.50;99.90;;;;;;4975321;28;20132;-66
2022/02/27 08:42:58;;;;;;;16.08;2.65;;;4.60;99.80;;;;;;5001593;28;20049;-66
2022/02/27 08:45:25;;;;;;;11.82;2.22;;;4.60;99.80;;;;;;4989764;28;20465;-65
2022/02/27 08:47:52;;;;;;;15.32;2.72;;;4.70;99.80;;;;;;4983716;28;20049;-66
2022/02/27 08:50:19;;;;;;;15.63;2.72;;;4.70;99.60;;;;;;4998470;28;20442;-65
2022/02/27 08:52:46;;;;;;;5.80;2.13;;;4.70;99.50;;;;;;4998747;28;20077;-65
2022/02/27 08:55:15;;;;;;;6.03;2.17;;;4.80;99.30;;;;;;5006617;28;20061;-65
2022/02/27 08:57:43;;;;;;;11.27;2.80;;;5.00;99.30;;;;;;4998674;28;20050;-66
2022/02/27 09:00:11;;;;;;;17.77;3.95;;;5.20;99.10;;;;;;4647853;28;9999808;-66
2022/02/27 09:02:38;;;;;;;17.92;2.97;;;5.50;98.80;;;;;;4996861;28;20069;-68
2022/02/27 09:05:05;;;;;;;8.70;2.35;;;5.60;98.60;;;;;;4993450;28;20057;-66
2022/02/27 09:07:32;;;;;;;12.38;2.78;;;5.70;98.20;;;;;;4996384;28;20108;-67
2022/02/27 09:09:59;;;;;;;13.93;4.40;;;5.80;98.20;;;;;;4992878;28;20141;-67
2022/02/27 09:12:28;;;;;;;15.68;3.47;;;5.90;98.20;;;;;;4993207;28;20053;-64
2022/02/27 09:14:55;;;;;;;9.43;2.72;;;6.10;98.10;;;;;;5000193;28;20077;-66
2022/02/27 09:17:22;;;;;;;10.30;3.58;;;6.40;97.70;;;;;;5005550;28;20105;-66
2022/02/27 09:19:49;;;;;;;14.32;4.50;;;6.60;97.30;;;;;;5000084;28;20082;-66
2022/02/27 09:22:17;;;;;;;10.50;2.65;;;6.80;97.20;;;;;;4997432;28;20054;-66
2022/02/27 09:24:44;;;;;;;17.70;3.55;;;7.10;97.10;;;;;;5005054;28;20100;-66
2022/02/27 09:27:11;;;;;;;6.45;2.67;;;7.40;96.20;;;;;;5000586;28;20077;-66
2022/02/27 09:29:38;;;;;;;6.30;1.92;;;7.60;96.50;;;;;;4994708;28;20108;-66
2022/02/27 09:32:05;;;;;;;9.30;2.83;;;7.80;96.20;;;;;;4997106;28;20497;-66
2022/02/27 09:34:32;;;;;;;12.55;2.67;;;7.90;96.00;;;;;;4999388;28;20398;-67
2022/02/27 09:36:58;;;;;;;21.75;3.90;;;7.80;95.80;;;;;;5004349;28;20073;-68
2022/02/27 09:39:27;;;;;;;11.00;2.30;;;7.70;95.90;;;;;;4998428;28;20141;-66
2022/02/27 09:41:54;;;;;;;12.73;2.28;;;7.40;95.60;;;;;;4993078;28;20054;-66
2022/02/27 09:44:21;;;;;;;19.25;4.30;;;7.10;95.60;;;;;;5003201;28;20046;-67
2022/02/27 09:46:48;;;;;;;9.82;2.42;;;6.90;95.90;;;;;;4974969;28;20143;-67
2022/02/27 09:49:15;;;;;;;7.85;2.25;;;6.90;96.20;;;;;;4982861;28;20724;-67
2022/02/27 09:51:42;;;;;;;10.20;2.45;;;6.80;96.20;;;;;;5001728;28;20057;-67
2022/02/27 09:54:09;;;;;;;14.27;2.25;;;6.80;96.20;;;;;;5002139;28;20136;-67
2022/02/27 09:56:36;;;;;;;22.25;2.28;;;6.80;95.40;;;;;;4999369;28;20125;-67
2022/02/27 09:59:07;;;;;;;10.18;2.42;;;6.80;96.10;;;;;;5001412;28;20556;-66
2022/02/27 10:01:39;;;;;;;6.20;2.13;;;6.70;96.00;;;;;;4993603;28;20045;-68
2022/02/27 10:04:21;;;;;;;9.77;2.47;;;6.70;95.70;;;;;;4997045;28;20405;-66
2022/02/27 10:06:49;;;;;;;7.35;1.73;;;6.70;95.40;;;;;;4984699;28;20064;-67
2022/02/27 10:09:23;;;;;;;7.88;2.17;;;6.80;96.00;;;;;;5004056;28;20057;-67
2022/02/27 10:11:56;;;;;;;13.43;3.70;;;6.70;95.20;;;;;;4997706;28;20112;-67
2022/02/27 10:14:24;;;;;;;7.50;2.70;;;6.80;95.60;;;;;;4962819;28;20132;-66
2022/02/27 10:16:51;;;;;;;10.00;2.22;;;6.80;95.80;;;;;;4999352;28;21649;-65
2022/02/27 10:19:18;;;;;;;7.85;2.10;;;6.80;95.40;;;;;;4979713;28;20190;-67
2022/02/27 10:21:46;;;;;;;8.32;2.08;;;6.80;95.40;;;;;;4996059;28;20188;-66
2022/02/27 10:24:20;;;;;;;11.77;2.10;;;6.90;95.30;;;;;;5005386;28;20053;-66
2022/02/27 10:26:48;;;;;;;9.65;2.13;;;6.90;95.40;;;;;;4995170;28;20046;-67
2022/02/27 10:29:17;;;;;;;7.00;2.30;;;6.90;95.20;;;;;;4989263;28;20050;-67
2022/02/27 10:31:54;;;;;;;7.55;1.98;;;6.90;95.40;;;;;;4994488;28;20109;-67
2022/02/27 10:34:35;;;;;;;18.02;2.92;;;7.00;94.50;;;;;;4992378;28;20057;-65
2022/02/27 10:37:05;;;;;;;;;;;7.00;94.80;;;;;;5000485;28;20078;-67
2022/02/27 10:39:34;;;;;;;8.85;1.88;;;7.00;93.70;;;;;;4996098;28;19973;-67
2022/02/27 10:42:10;;;;;;;9.00;2.05;;;7.10;94.70;;;;;;4986494;28;20096;-67
2022/02/27 10:44:38;;;;;;;6.38;2.30;;;7.10;94.10;;;;;;4998965;28;21257;-67
2022/02/27 10:47:14;;;;;;;16.25;2.10;;;7.10;94.90;;;;;;4996556;28;20133;-67
2022/02/27 10:49:41;;;;;;;10.10;1.85;;;7.20;94.60;;;;;;4987272;28;20089;-66
2022/02/27 10:52:19;;;;;;;7.55;1.77;;;7.30;93.90;;;;;;4991595;28;20148;-66
2022/02/27 10:54:48;;;;;;;8.40;1.65;;;7.30;94.30;;;;;;4986889;28;20058;-66
2022/02/27 10:57:37;;;;;;;10.90;1.88;;;7.40;93.80;;;;;;4998325;28;20374;-67
2022/02/27 11:00:17;;;;;;;8.85;1.90;;;7.40;92.50;;;;;;5014722;28;20084;-66
2022/02/27 11:02:45;;;;;;;9.35;1.95;;;7.40;93.00;;;;;;4994847;28;20450;-67
2022/02/27 11:05:14;;;;;;;9.50;2.45;;;7.50;93.80;;;;;;5007201;28;20060;-67
2022/02/27 11:07:42;;;;;;;11.02;2.60;;;7.60;93.80;;;;;;5004043;28;20468;-67
2022/02/27 11:10:16;;;;;;;6.10;2.05;;;7.60;94.00;;;;;;4996477;28;20054;-67
2022/02/27 11:12:43;;;;;;;11.52;2.05;;;7.70;93.50;;;;;;4995426;28;20419;-66
2022/02/27 11:15:17;;;;;;;8.70;2.25;;;7.70;93.80;;;;;;4997570;28;20100;-66
2022/02/27 11:17:44;;;;;;;7.47;2.13;;;7.70;93.90;;;;;;4994248;28;20077;-67
2022/02/27 11:20:13;;;;;;;9.20;2.45;;;7.80;93.70;;;;;;4996350;28;20046;-67
2022/02/27 11:22:40;;;;;;;8.20;2.10;;;7.80;93.80;;;;;;4995309;28;20049;-67
2022/02/27 11:25:08;;;;;;;10.75;2.20;;;7.90;93.70;;;;;;4999352;28;20081;-67
2022/02/27 11:27:37;;;;;;;15.00;2.15;;;7.90;93.50;;;;;;4993042;28;20545;-67
2022/02/27 11:30:04;;;;;;;11.25;1.80;;;7.90;93.00;;;;;;4983529;28;20108;-67
2022/02/27 11:32:31;;;;;;;12.48;2.30;;;7.90;93.30;;;;;;4990763;28;20103;-67
2022/02/27 11:34:58;;;;;;;9.82;1.77;;;8.00;93.20;;;;;;4996188;28;20089;-67
2022/02/27 11:37:47;;;;;;;8.50;2.25;;;7.90;93.20;;;;;;4982543;28;20156;-66
2022/02/27 11:40:29;;;;;;;8.52;2.20;;;8.00;91.50;;;;;;4981362;28;20056;-68
2022/02/27 11:42:57;;;;;;;7.00;1.90;;;8.00;92.70;;;;;;4982686;28;20047;-66
2022/02/27 11:45:36;;;;;;;6.15;1.45;;;8.10;91.80;;;;;;5004579;28;20078;-67
2022/02/27 11:48:04;;;;;;;5.00;1.48;;;8.20;91.00;;;;;;4992423;28;20789;-67
2022/02/27 11:50:35;;;;;;;14.13;2.30;;;8.20;92.90;;;;;;5005736;28;20046;-68
2022/02/27 11:53:02;;;;;;;13.48;2.08;;;8.20;92.80;;;;;;5002479;28;20096;-67
2022/02/27 11:55:42;;;;;;;10.32;2.20;;;8.20;92.90;;;;;;5003977;28;20477;-67
2022/02/27 11:58:27;;;;;;;6.25;1.42;;;8.30;92.20;;;;;;4976195;28;20097;-66
2022/02/27 12:00:58;;;;;;;6.63;1.55;;;8.40;91.70;;;;;;4998574;28;20049;-67
2022/02/27 12:03:31;;;;;;;7.05;1.88;;;8.40;92.50;;;;;;4993748;28;20049;-68
2022/02/27 12:06:02;;;;;;;6.68;1.73;;;8.50;90.20;;;;;;4998573;28;20050;-68
2022/02/27 12:08:45;;;;;;;5.25;1.58;;;8.50;91.10;;;;;;4992788;28;20147;-68
2022/02/27 12:11:25;;;;;;;5.35;1.58;;;8.50;89.70;;;;;;4978028;28;20074;-67
2022/02/27 12:14:06;;;;;;;;;;;8.60;89.40;;;;;;5000159;28;20105;-66
2022/02/27 12:16:42;;;;;;;10.13;2.03;;;8.60;87.50;;;;;;4999305;28;19979;-67
2022/02/27 12:19:22;;;;;;;9.07;2.03;;;8.60;90.60;;;;;;4996102;28;20694;-67
2022/02/27 12:21:50;;;;;;;5.82;1.45;;;8.70;87.90;;;;;;5000887;28;20568;-67
2022/02/27 12:24:25;;;;;;;7.03;1.70;;;8.80;91.00;;;;;;5001483;28;20153;-68
2022/02/27 12:27:02;;;;;;;14.43;3.60;;;8.80;90.20;;;;;;5001971;28;20457;-68
2022/02/27 12:29:39;;;;;;;5.40;1.75;;;8.90;90.90;;;;;;4994234;28;20056;-67
2022/02/27 12:32:11;;;;;;;8.90;1.75;;;8.90;90.70;;;;;;4993806;28;20666;-67
2022/02/27 12:34:38;;;;;;;5.70;2.13;;;8.90;90.80;;;;;;4992363;28;20074;-68
2022/02/27 12:37:05;;;;;;;7.88;1.98;;;8.90;90.30;;;;;;4997178;28;20484;-67
2022/02/27 12:39:34;;;;;;;13.88;2.58;;;8.90;90.80;;;;;;4991396;28;20041;-68
2022/02/27 12:42:02;;;;;;;10.02;2.15;;;8.90;90.30;;;;;;4993955;28;20146;-68
2022/02/27 12:44:39;;;;;;;6.70;1.77;;;8.90;91.10;;;;;;5001119;28;20050;-67
2022/02/27 12:47:15;;;;;;;4.63;1.77;;;9.00;91.00;;;;;;4991585;28;20560;-68
2022/02/27 12:52:37;;;;;;;5.93;1.77;;;9.00;89.20;;;;;;4994582;28;20596;-68
2022/02/27 12:55:11;;;;;;;9.80;2.28;;;9.00;90.30;;;;;;4989326;28;20050;-67
2022/02/27 12:57:47;;;;;;;7.63;1.60;;;9.00;90.70;;;;;;4996765;28;20409;-67